createdAt,value
2022-08-12T00:00:29.266Z,-143.72
2022-08-12T00:03:52.204Z,-143.72
2022-08-12T00:07:15.124Z,-143.72
2022-08-12T00:10:37.937Z,-143.72
2022-08-12T00:14:00.414Z,-143.72
2022-08-12T00:17:24.846Z,-143.72
2022-08-12T00:20:50.132Z,-143.72
2022-08-12T00:24:13.217Z,-143.72
2022-08-12T00:27:43.643Z,-143.72
2022-08-12T00:31:07.092Z,-143.72
2022-08-12T00:34:33.101Z,-143.72
2022-08-12T00:37:55.947Z,-143.72
2022-08-12T00:41:19.231Z,-143.72
2022-08-12T00:44:25.134Z,-143.72
2022-08-12T00:47:32.093Z,-143.72
2022-08-12T00:50:39.702Z,-143.72
2022-08-12T00:53:45.280Z,-143.72
2022-08-12T00:56:51.027Z,-143.72
2022-08-12T00:59:57.669Z,-143.72
2022-08-12T01:03:04.204Z,-143.72
2022-08-12T01:06:29.210Z,-143.72
2022-08-12T01:10:00.747Z,-143.72
2022-08-12T01:13:18.748Z,-143.72
2022-08-12T01:16:25.009Z,-143.72
2022-08-12T01:19:31.266Z,-143.72
2022-08-12T01:22:42.763Z,-143.72
2022-08-12T01:25:56.017Z,-143.72
2022-08-12T01:29:02.613Z,-143.72
2022-08-12T01:32:11.320Z,-143.72
2022-08-12T01:35:17.715Z,-143.72
2022-08-12T01:38:29.854Z,-143.72
2022-08-12T01:41:41.170Z,-143.72
2022-08-12T01:44:48.117Z,-143.72
2022-08-12T01:48:03.922Z,-143.72
2022-08-12T01:52:14.630Z,-143.72
2022-08-12T01:54:44.132Z,-143.72
2022-08-12T01:57:58.359Z,-143.72
2022-08-12T02:01:07.686Z,-143.72
2022-08-12T02:04:34.505Z,-143.72
2022-08-12T02:08:02.669Z,-143.72
2022-08-12T02:11:17.626Z,-143.72
2022-08-12T02:14:44.652Z,-143.72
2022-08-12T02:18:00.260Z,-143.72
2022-08-12T02:21:08.095Z,-143.72
2022-08-12T02:24:14.604Z,-143.72
2022-08-12T02:27:21.175Z,-143.72
2022-08-12T02:30:41.859Z,-143.72
2022-08-12T02:33:48.266Z,-143.72
2022-08-12T02:36:56.127Z,-143.72
2022-08-12T02:40:04.212Z,-143.72
2022-08-12T02:43:15.223Z,-143.72
2022-08-12T02:46:27.662Z,-143.72
2022-08-12T02:49:35.880Z,-143.72
2022-08-12T02:52:42.245Z,-143.72
2022-08-12T02:55:48.101Z,-143.72
2022-08-12T02:58:54.452Z,-143.72
2022-08-12T03:02:03.343Z,-143.72
2022-08-12T03:05:12.464Z,-143.72
2022-08-12T03:08:30.566Z,-143.72
2022-08-12T03:11:42.734Z,-143.72
2022-08-12T03:14:48.719Z,-143.72
2022-08-12T03:18:24.733Z,-143.72
2022-08-12T03:21:55.678Z,-143.72
2022-08-12T03:24:50.271Z,-143.72
2022-08-12T03:27:57.274Z,-143.72
2022-08-12T03:31:04.080Z,-143.72
2022-08-12T03:34:13.011Z,-143.72
2022-08-12T03:37:20.135Z,-143.72
2022-08-12T03:40:44.146Z,-143.72
2022-08-12T03:44:13.674Z,-143.72
2022-08-12T03:47:38.381Z,-143.72
2022-08-12T03:51:04.077Z,-143.72
2022-08-12T03:54:27.278Z,-143.72
2022-08-12T03:57:50.137Z,-143.72
2022-08-12T04:00:55.915Z,-143.72
2022-08-12T04:04:04.134Z,-143.72
2022-08-12T04:07:11.316Z,-143.72
2022-08-12T04:10:17.067Z,-143.72
2022-08-12T04:13:21.811Z,-143.72
2022-08-12T04:16:27.230Z,-143.72
2022-08-12T04:19:34.419Z,-143.72
2022-08-12T04:22:41.716Z,-143.72
2022-08-12T04:25:46.928Z,-143.72
2022-08-12T04:28:51.869Z,-143.72
2022-08-12T04:31:57.152Z,-143.72
2022-08-12T04:35:03.880Z,-143.72
2022-08-12T04:38:11.384Z,-143.72
2022-08-12T04:41:19.190Z,-143.72
2022-08-12T04:44:24.590Z,-143.72
2022-08-12T04:47:30.854Z,-143.72
2022-08-12T04:50:37.283Z,-143.72
2022-08-12T04:53:44.722Z,-143.72
2022-08-12T04:57:04.197Z,-143.72
2022-08-12T05:00:11.357Z,-143.72
2022-08-12T05:03:16.916Z,-143.72
2022-08-12T05:06:26.963Z,-143.72
2022-08-12T05:10:00.283Z,-143.72
2022-08-12T05:13:01.281Z,-143.72
2022-08-12T05:16:09.325Z,-143.72
2022-08-12T05:19:18.614Z,-143.72
2022-08-12T05:22:28.380Z,-143.72
2022-08-12T05:25:34.865Z,-143.72
2022-08-12T05:28:40.629Z,-143.72
2022-08-12T05:31:48.403Z,-143.72
2022-08-12T05:34:54.607Z,-143.72
2022-08-12T05:38:17.247Z,-143.72
2022-08-12T05:41:24.417Z,-143.72
2022-08-12T05:44:29.762Z,-143.72
2022-08-12T05:47:44.750Z,-143.72
2022-08-12T05:50:59.093Z,-143.72
2022-08-12T05:54:04.992Z,-143.72
2022-08-12T05:57:12.797Z,-143.72
2022-08-12T06:00:18.445Z,-143.72
2022-08-12T06:03:24.039Z,-143.72
2022-08-12T06:06:31.664Z,-143.72
2022-08-12T06:09:37.135Z,-143.72
2022-08-12T06:12:49.285Z,-143.72
2022-08-12T06:15:54.619Z,-143.72
2022-08-12T06:19:00.166Z,-143.72
2022-08-12T06:22:05.840Z,-143.72
2022-08-12T06:25:17.625Z,-143.72
2022-08-12T06:28:26.308Z,-143.72
2022-08-12T06:31:31.913Z,-143.72
2022-08-12T06:35:26.142Z,-143.72
2022-08-12T06:38:03.781Z,-143.72
2022-08-12T06:41:26.430Z,-143.72
2022-08-12T06:44:33.363Z,-143.72
2022-08-12T06:47:38.599Z,-143.72
2022-08-12T06:50:46.188Z,-143.72
2022-08-12T06:53:51.846Z,-143.72
2022-08-12T06:58:06.026Z,-143.72
2022-08-12T07:00:28.454Z,-143.72
2022-08-12T07:03:38.501Z,-143.72
2022-08-12T07:06:44.882Z,-143.72
2022-08-12T07:10:04.903Z,-143.72
2022-08-12T07:13:12.587Z,-143.72
2022-08-12T07:16:19.984Z,-143.72
2022-08-12T07:19:25.278Z,-143.72
2022-08-12T07:22:46.105Z,-143.72
2022-08-12T07:25:54.113Z,-143.72
2022-08-12T07:29:03.543Z,-143.72
2022-08-12T07:32:10.539Z,-143.72
2022-08-12T07:35:17.597Z,-143.72
2022-08-12T07:38:29.426Z,-143.72
2022-08-12T07:41:35.750Z,-143.72
2022-08-12T07:44:40.843Z,-143.72
2022-08-12T07:47:47.526Z,-143.72
2022-08-12T07:50:52.978Z,-143.72
2022-08-12T07:54:00.776Z,-143.72
2022-08-12T07:57:11.773Z,-143.72
2022-08-12T08:00:18.390Z,-143.72
2022-08-12T08:03:25.872Z,-143.72
2022-08-12T08:06:31.825Z,-143.72
2022-08-12T08:09:39.186Z,-143.72
2022-08-12T08:12:58.853Z,-143.72
2022-08-12T08:16:05.832Z,-143.72
2022-08-12T08:19:19.316Z,-143.72
2022-08-12T08:22:32.043Z,-143.72
2022-08-12T08:25:47.303Z,-143.72
2022-08-12T08:28:53.150Z,-143.72
2022-08-12T08:32:01.592Z,-143.72
2022-08-12T08:35:10.592Z,-143.72
2022-08-12T08:38:17.643Z,-143.72
2022-08-12T08:42:14.156Z,-143.72
2022-08-12T08:45:21.185Z,-143.72
2022-08-12T08:48:26.546Z,-143.72
2022-08-12T08:51:33.185Z,-143.72
2022-08-12T08:54:39.003Z,-143.72
2022-08-12T08:57:46.239Z,-143.72
2022-08-12T09:00:51.624Z,-143.72
2022-08-12T09:05:13.906Z,-143.72
2022-08-12T09:07:51.324Z,-143.72
2022-08-12T09:10:49.446Z,-143.72
2022-08-12T09:14:10.554Z,-143.72
2022-08-12T09:17:21.209Z,-143.72
2022-08-12T09:20:31.595Z,-143.72
2022-08-12T09:24:00.313Z,-143.72
2022-08-12T09:27:03.659Z,-143.72
2022-08-12T09:30:16.214Z,-143.72
2022-08-12T09:34:29.426Z,-143.72
2022-08-12T09:37:00.566Z,-143.72
2022-08-12T09:40:57.865Z,-143.72
2022-08-12T09:43:54.053Z,-143.72
2022-08-12T09:47:10.491Z,-143.72
2022-08-12T09:50:20.470Z,-143.72
2022-08-12T09:53:35.976Z,-143.72
2022-08-12T09:56:58.315Z,-143.72
2022-08-12T10:00:14.574Z,-143.72
2022-08-12T10:03:32.477Z,29.91
2022-08-12T10:06:55.496Z,-143.72
2022-08-12T10:10:03.036Z,-143.72
2022-08-12T10:13:35.725Z,-143.72
2022-08-12T10:16:45.403Z,-143.72
2022-08-12T10:19:53.143Z,31.78
2022-08-12T10:23:01.955Z,31.61
2022-08-12T10:26:37.646Z,42.86
2022-08-12T10:30:03.171Z,31.01
2022-08-12T10:33:18.147Z,-143.72
2022-08-12T10:36:40.313Z,-143.72
2022-08-12T10:40:00.942Z,-143.72
2022-08-12T10:43:26.385Z,-143.72
2022-08-12T10:46:35.311Z,31.10
2022-08-12T10:50:02.761Z,188.25
2022-08-12T10:53:09.676Z,63.61
2022-08-12T10:56:15.622Z,105.14
2022-08-12T10:59:39.115Z,-143.72
2022-08-12T11:04:24.606Z,31.61
2022-08-12T11:07:09.188Z,42.86
2022-08-12T11:09:59.574Z,42.86
2022-08-12T11:13:09.372Z,-143.72
2022-08-12T11:16:19.495Z,-143.72
2022-08-12T11:19:29.230Z,30.79
2022-08-12T11:22:38.907Z,-143.72
2022-08-12T11:25:57.574Z,-143.72
2022-08-12T11:29:05.882Z,-143.72
2022-08-12T11:32:27.634Z,-143.72
2022-08-12T11:35:36.277Z,-143.72
2022-08-12T11:38:42.880Z,29.67
2022-08-12T11:41:55.182Z,-143.72
2022-08-12T11:45:05.165Z,29.89
2022-08-12T11:48:10.604Z,29.27
2022-08-12T11:51:22.166Z,29.15
2022-08-12T11:54:29.779Z,29.89
2022-08-12T11:58:40.575Z,29.01
2022-08-12T12:04:31.243Z,28.86
2022-08-12T12:08:38.111Z,29.02
2022-08-12T12:11:09.450Z,28.70
2022-08-12T12:14:15.775Z,28.65
2022-08-12T12:17:22.902Z,28.34
2022-08-12T12:20:30.474Z,28.46
2022-08-12T12:23:37.762Z,28.60
2022-08-12T12:26:43.210Z,28.79
2022-08-12T12:30:19.076Z,28.78
2022-08-12T12:33:18.013Z,28.72
2022-08-12T12:36:29.583Z,28.43
2022-08-12T12:39:54.760Z,28.68
2022-08-12T12:43:05.168Z,28.26
2022-08-12T12:46:11.035Z,28.13
2022-08-12T12:49:16.554Z,27.88
2022-08-12T12:52:26.820Z,27.92
2022-08-12T12:55:36.015Z,27.84
2022-08-12T12:58:43.381Z,28.59
2022-08-12T13:01:49.039Z,105.14
2022-08-12T13:04:55.306Z,-143.72
2022-08-12T13:08:02.306Z,-143.72
2022-08-12T13:11:09.256Z,63.61
2022-08-12T13:14:28.971Z,29.89
2022-08-12T13:18:02.988Z,105.14
2022-08-12T13:21:02.540Z,27.88
2022-08-12T13:24:10.378Z,27.86
2022-08-12T13:27:17.270Z,27.78
2022-08-12T13:30:23.852Z,27.70
2022-08-12T13:34:33.783Z,27.89
2022-08-12T13:36:57.097Z,27.76
2022-08-12T13:40:02.496Z,27.94
2022-08-12T13:43:15.279Z,29.89
2022-08-12T13:46:42.227Z,28.59
2022-08-12T13:49:54.017Z,27.94
2022-08-12T13:53:06.307Z,42.86
2022-08-12T13:56:34.582Z,188.25
2022-08-12T13:59:48.258Z,105.14
2022-08-12T14:02:55.051Z,-143.72
2022-08-12T14:06:02.745Z,-143.72
2022-08-12T14:09:15.642Z,-143.72
2022-08-12T14:12:31.256Z,26.96
2022-08-12T14:15:39.516Z,-143.72
2022-08-12T14:18:49.035Z,-143.72
2022-08-12T14:22:00.563Z,-143.72
2022-08-12T14:25:08.731Z,26.87
2022-08-12T14:28:17.180Z,26.83
2022-08-12T14:31:29.276Z,26.59
2022-08-12T14:34:37.578Z,42.86
2022-08-12T14:37:56.105Z,-143.72
2022-08-12T14:41:05.110Z,26.62
2022-08-12T14:44:57.832Z,-143.72
2022-08-12T14:47:58.646Z,188.25
2022-08-12T14:52:54.132Z,188.25
2022-08-12T14:56:59.936Z,188.25
2022-08-12T14:57:57.789Z,26.59
2022-08-12T15:01:21.634Z,26.32
2022-08-12T15:04:29.757Z,26.42
2022-08-12T15:07:51.142Z,26.33
2022-08-12T15:11:00.342Z,26.41
2022-08-12T15:14:08.215Z,-143.72
2022-08-12T15:17:37.468Z,26.49
2022-08-12T15:20:41.516Z,-143.72
2022-08-12T15:23:55.369Z,-143.72
2022-08-12T15:27:01.643Z,-143.72
2022-08-12T15:30:14.247Z,26.49
2022-08-12T15:33:24.136Z,26.47
2022-08-12T15:36:54.899Z,26.42
2022-08-12T15:40:01.236Z,26.41
2022-08-12T15:43:08.079Z,-143.72
2022-08-12T15:46:15.146Z,26.44
2022-08-12T15:49:21.472Z,26.47
2022-08-12T15:52:30.655Z,-143.72
2022-08-12T15:55:36.024Z,-143.72
2022-08-12T15:58:42.890Z,26.54
2022-08-12T16:01:48.514Z,-143.72
2022-08-12T16:04:55.033Z,-143.72
2022-08-12T16:08:01.642Z,32.48
2022-08-12T16:11:14.881Z,32.48
2022-08-12T16:14:21.071Z,26.29
2022-08-12T16:18:18.317Z,-143.72
2022-08-12T16:20:56.017Z,-143.72
2022-08-12T18:49:19.076Z,24.29
2022-08-12T18:52:33.838Z,24.25
2022-08-12T18:55:39.659Z,24.25
2022-08-12T18:59:03.088Z,24.24
2022-08-12T19:02:17.962Z,24.16
2022-08-12T19:05:54.091Z,24.10
2022-08-12T19:08:56.603Z,24.05
2022-08-12T19:12:20.882Z,23.99
2022-08-12T19:15:27.011Z,23.93
2022-08-12T19:18:39.889Z,23.93
2022-08-12T19:21:56.577Z,23.86
2022-08-12T19:25:19.889Z,23.86
2022-08-12T19:28:30.181Z,23.89
2022-08-12T19:31:55.904Z,23.90
2022-08-12T19:38:31.402Z,24.00
2022-08-12T19:41:55.873Z,24.03
2022-08-12T19:45:06.577Z,24.03
2022-08-12T19:48:18.797Z,24.08
2022-08-12T19:51:33.301Z,24.16
2022-08-12T19:54:43.979Z,24.19
2022-08-12T19:58:02.258Z,24.03
2022-08-12T20:01:11.049Z,23.91
2022-08-12T20:04:16.957Z,23.90
2022-08-12T20:07:23.589Z,23.81
2022-08-12T20:10:35.128Z,23.79
2022-08-12T20:13:42.393Z,23.69
2022-08-12T20:16:57.727Z,23.62
2022-08-12T20:20:18.948Z,23.51
2022-08-12T20:23:37.140Z,23.48
2022-08-12T20:26:55.454Z,23.47
2022-08-12T20:30:01.121Z,23.37
2022-08-12T20:33:06.438Z,23.37
2022-08-12T20:36:42.648Z,23.37
2022-08-12T20:39:56.609Z,23.46
2022-08-12T20:43:06.507Z,23.44
2022-08-12T20:46:13.718Z,23.53
2022-08-12T20:49:20.849Z,23.52
2022-08-12T20:52:41.671Z,23.48
2022-08-12T20:55:56.616Z,23.43
2022-08-12T20:59:21.633Z,23.37
2022-08-12T21:02:31.238Z,23.35
2022-08-12T21:09:31.808Z,23.32
2022-08-12T21:12:37.659Z,23.32
2022-08-12T21:15:54.860Z,23.35
2022-08-12T21:19:07.973Z,23.39
2022-08-12T21:22:24.789Z,23.46
2022-08-12T21:25:36.113Z,23.49
2022-08-12T21:28:58.599Z,23.55
2022-08-12T21:32:41.078Z,23.60
2022-08-12T21:35:50.544Z,23.65
2022-08-12T21:38:59.513Z,23.68
2022-08-12T21:42:07.285Z,23.70
2022-08-12T21:45:46.784Z,23.77
2022-08-12T21:48:40.051Z,23.81
2022-08-12T21:51:50.599Z,23.81
2022-08-12T21:54:56.479Z,23.83
2022-08-12T21:58:10.728Z,23.78
2022-08-12T22:01:22.718Z,23.78
2022-08-12T22:04:49.893Z,23.76
2022-08-12T22:07:59.219Z,23.75
2022-08-12T22:11:04.660Z,23.71
2022-08-12T22:14:21.313Z,23.70
2022-08-12T22:17:49.681Z,23.65
2022-08-12T22:20:56.611Z,23.60
2022-08-12T22:24:05.538Z,23.59
2022-08-12T22:27:31.546Z,23.57
2022-08-12T22:30:54.057Z,23.56
2022-08-12T22:34:00.256Z,23.52
2022-08-12T22:37:19.797Z,23.50
2022-08-12T22:40:30.318Z,23.49
2022-08-12T22:44:00.710Z,23.43
2022-08-12T22:47:49.654Z,23.39
2022-08-12T22:50:53.067Z,23.38
2022-08-12T22:53:58.430Z,23.34
2022-08-12T22:57:11.809Z,23.27
2022-08-12T23:00:24.195Z,23.24
2022-08-12T23:03:49.369Z,23.24
2022-08-12T23:06:56.961Z,23.20
2022-08-12T23:10:03.263Z,23.14
2022-08-12T23:13:26.612Z,23.09
2022-08-12T23:16:34.084Z,23.07
2022-08-12T23:19:39.628Z,22.99
2022-08-12T23:22:56.197Z,22.96
2022-08-12T23:26:08.097Z,22.92
2022-08-12T23:29:29.954Z,22.91
2022-08-12T23:32:40.642Z,22.90
2022-08-12T23:36:03.069Z,22.85
2022-08-12T23:40:14.793Z,22.82
2022-08-12T23:42:35.026Z,22.79
2022-08-12T23:45:41.549Z,22.79
2022-08-12T23:49:57.395Z,22.78
2022-08-12T23:52:34.152Z,22.76
2022-08-12T23:55:41.184Z,22.76
2022-08-12T23:58:49.741Z,22.78
